Aurora Springs, Missouri
Current Conditions -  °F | °C
As of 11:55 PM on Wednesday 28 Jan 2015 (Local Time) from KAIZ Reporting Station
Clear Clear  
Wind Chill: 54°   Ceiling: Unl
Heat Index: 54°   Visibility: 10mi
Dew Point: 37°   Wind: 7mph
Humidity: 54%   Direction: 180°S
Pressure: 29.81"   Gusts: NA
Location:  38.333°N, 92.5524°W
Report Text: KAIZ 290555Z AUTO 18006KT 10SM CLR 12/03 A2981 RMK AO1 10130 20120 57007
Loading
Personal Weather Stations






























Interactive Weather Map New forecast layout! Learn more

10-Day Weather Forecast

Advertisements
Track Severe Weather on mobile